createdAt,value
2023-01-26T00:01:15.606Z,100120.00
2023-01-26T00:02:49.057Z,100117.00
2023-01-26T00:04:22.779Z,100118.00
2023-01-26T00:05:56.104Z,100119.00
2023-01-26T00:07:30.444Z,100107.00
2023-01-26T00:09:03.059Z,100117.00
2023-01-26T00:10:37.612Z,100116.00
2023-01-26T00:12:10.929Z,100127.00
2023-01-26T00:13:44.812Z,100127.00
2023-01-26T00:15:18.378Z,100120.00
2023-01-26T00:16:54.784Z,100118.00
2023-01-26T00:18:27.997Z,100100.00
2023-01-26T00:20:01.218Z,100113.00
2023-01-26T00:21:34.781Z,100111.00
2023-01-26T00:23:08.129Z,100115.00
2023-01-26T00:24:40.450Z,100120.00
2023-01-26T00:26:18.239Z,100108.00
2023-01-26T00:27:51.489Z,100111.00
2023-01-26T00:29:24.621Z,100096.00
2023-01-26T00:31:04.544Z,100098.00
2023-01-26T00:32:39.840Z,100095.00
2023-01-26T00:34:12.951Z,100096.00
2023-01-26T00:35:55.923Z,100093.00
2023-01-26T00:37:29.053Z,100091.00
2023-01-26T00:39:02.755Z,100095.00
2023-01-26T00:40:35.904Z,100084.00
2023-01-26T00:42:09.926Z,100083.00
2023-01-26T00:43:43.047Z,100088.00
2023-01-26T00:45:16.546Z,100079.00
2023-01-26T00:46:51.405Z,100083.00
2023-01-26T00:48:26.010Z,100079.00
2023-01-26T00:49:58.399Z,100074.00
2023-01-26T00:51:35.013Z,100080.00
2023-01-26T00:53:10.757Z,100074.00
2023-01-26T00:54:43.102Z,100079.00
2023-01-26T00:56:16.392Z,100076.00
2023-01-26T00:57:51.047Z,100070.00
2023-01-26T00:59:23.947Z,100075.00
2023-01-26T01:00:57.310Z,100077.00
2023-01-26T01:02:30.651Z,100076.00
2023-01-26T01:04:04.185Z,100078.00
2023-01-26T01:05:37.650Z,100066.00
2023-01-26T01:07:13.446Z,100068.00
2023-01-26T01:08:46.809Z,100069.00
2023-01-26T01:10:20.411Z,100066.00
2023-01-26T01:11:53.693Z,100064.00
2023-01-26T01:13:26.948Z,100061.00
2023-01-26T01:15:00.054Z,100070.00
2023-01-26T01:16:33.675Z,100063.00
2023-01-26T01:18:06.129Z,100059.00
2023-01-26T01:19:40.740Z,100054.00
2023-01-26T01:21:16.129Z,100044.00
2023-01-26T01:22:51.924Z,100057.00
2023-01-26T01:24:25.289Z,100052.00
2023-01-26T01:25:58.486Z,100047.00
2023-01-26T01:27:31.816Z,100046.00
2023-01-26T01:29:05.541Z,100034.00
2023-01-26T01:30:38.476Z,100033.00
2023-01-26T01:32:11.866Z,100034.00
2023-01-26T01:33:45.732Z,100019.00
2023-01-26T01:35:21.279Z,100031.00
2023-01-26T01:36:55.037Z,100035.00
2023-01-26T01:38:27.935Z,100031.00
2023-01-26T01:40:01.224Z,100037.00
2023-01-26T01:41:34.566Z,100038.00
2023-01-26T01:43:11.828Z,100032.00
2023-01-26T01:45:07.951Z,100034.00
2023-01-26T01:46:51.354Z,100024.00
2023-01-26T01:48:32.075Z,100022.00
2023-01-26T01:50:07.244Z,100020.00
2023-01-26T01:51:52.379Z,100018.00
2023-01-26T01:53:33.383Z,100026.00
2023-01-26T01:55:11.170Z,100019.00
2023-01-26T01:56:50.235Z,100021.00
2023-01-26T01:58:23.022Z,100021.00
2023-01-26T02:00:09.356Z,100018.00
2023-01-26T02:01:53.057Z,100009.00
2023-01-26T02:03:28.588Z,100015.00
2023-01-26T02:05:13.883Z,100014.00
2023-01-26T02:06:52.220Z,100009.00
2023-01-26T02:08:30.621Z,100007.00
2023-01-26T02:10:20.366Z,100013.00
2023-01-26T02:11:54.692Z,100000.00
2023-01-26T02:13:31.728Z,100004.00
2023-01-26T02:15:05.864Z,99999.00
2023-01-26T02:16:39.839Z,99997.00
2023-01-26T02:18:13.295Z,99990.00
2023-01-26T02:19:59.341Z,99996.00
2023-01-26T02:21:33.856Z,99995.00
2023-01-26T02:23:23.187Z,99993.00
2023-01-26T02:25:02.887Z,99995.00
2023-01-26T02:26:39.622Z,99995.00
2023-01-26T02:28:13.238Z,99976.00
2023-01-26T02:29:46.508Z,99985.00
2023-01-26T02:31:21.308Z,99979.00
2023-01-26T02:32:54.742Z,99996.00
2023-01-26T02:34:28.861Z,99992.00
2023-01-26T02:36:03.011Z,99996.00
2023-01-26T02:37:37.213Z,99994.00
2023-01-26T02:39:26.061Z,99982.00
2023-01-26T02:41:05.501Z,99983.00
2023-01-26T02:42:39.282Z,99971.00
2023-01-26T02:44:13.808Z,99980.00
2023-01-26T02:45:47.389Z,99970.00
2023-01-26T02:47:20.122Z,99966.00
2023-01-26T02:49:12.110Z,99970.00
2023-01-26T02:50:45.225Z,99972.00
2023-01-26T02:52:20.614Z,99978.00
2023-01-26T02:53:59.504Z,99980.00
2023-01-26T02:55:31.831Z,99971.00
2023-01-26T02:57:06.387Z,99971.00
2023-01-26T02:58:41.444Z,99965.00
2023-01-26T03:00:19.519Z,99959.00
2023-01-26T03:01:57.590Z,99956.00
2023-01-26T03:03:43.569Z,99963.00
2023-01-26T03:05:18.267Z,99966.00
2023-01-26T03:06:51.495Z,99970.00
2023-01-26T03:08:24.700Z,99963.00
2023-01-26T03:09:58.700Z,99956.00
2023-01-26T03:11:41.970Z,99960.00
2023-01-26T03:13:15.589Z,99961.00
2023-01-26T03:15:09.290Z,99951.00
2023-01-26T03:16:43.578Z,99959.00
2023-01-26T03:18:36.445Z,99951.00
2023-01-26T03:20:29.901Z,99955.00
2023-01-26T03:22:21.010Z,99951.00
2023-01-26T03:24:12.505Z,99948.00
2023-01-26T03:26:03.377Z,99948.00
2023-01-26T03:27:44.997Z,99944.00
2023-01-26T03:29:18.629Z,99954.00
2023-01-26T03:30:58.524Z,99949.00
2023-01-26T03:32:31.891Z,99943.00
2023-01-26T03:34:05.459Z,99945.00
2023-01-26T03:35:39.362Z,99950.00
2023-01-26T03:37:11.877Z,99944.00
2023-01-26T03:38:54.556Z,99943.00
2023-01-26T03:40:46.425Z,99948.00
2023-01-26T03:42:38.023Z,99953.00
2023-01-26T03:44:29.170Z,99944.00
2023-01-26T03:46:23.342Z,99942.00
2023-01-26T03:48:23.619Z,99947.00
2023-01-26T03:50:14.698Z,99945.00
2023-01-26T03:52:05.544Z,99949.00
2023-01-26T03:53:56.377Z,99946.00
2023-01-26T03:55:47.324Z,99948.00
2023-01-26T03:57:20.556Z,99947.00
2023-01-26T03:58:56.734Z,99949.00
2023-01-26T04:00:32.104Z,99953.00
2023-01-26T04:02:25.778Z,99952.00
2023-01-26T04:04:16.558Z,99953.00
2023-01-26T04:06:16.517Z,99957.00
2023-01-26T04:08:11.206Z,99961.00
2023-01-26T04:09:44.500Z,99952.00
2023-01-26T04:11:17.715Z,99944.00
2023-01-26T04:13:09.042Z,99950.00
2023-01-26T04:15:00.199Z,99952.00
2023-01-26T04:16:51.592Z,99952.00
2023-01-26T04:18:43.943Z,99945.00
2023-01-26T04:20:35.089Z,99935.00
2023-01-26T04:22:08.517Z,99940.00
2023-01-26T04:23:42.259Z,99941.00
2023-01-26T04:25:21.101Z,99943.00
2023-01-26T04:26:54.605Z,99945.00
2023-01-26T04:28:31.812Z,99945.00
2023-01-26T04:30:07.498Z,99934.00
2023-01-26T04:31:42.505Z,99934.00
2023-01-26T04:33:15.865Z,99942.00
2023-01-26T04:34:49.416Z,99943.00
2023-01-26T04:36:28.092Z,99943.00
2023-01-26T04:38:01.660Z,99943.00
2023-01-26T04:39:34.985Z,99931.00
2023-01-26T04:41:08.149Z,99940.00
2023-01-26T04:42:48.484Z,99941.00
2023-01-26T04:44:22.273Z,99939.00
2023-01-26T04:46:00.307Z,99943.00
2023-01-26T04:47:34.665Z,99935.00
2023-01-26T04:49:09.431Z,99925.00
2023-01-26T04:50:43.996Z,99942.00
2023-01-26T04:52:17.497Z,99937.00
2023-01-26T04:53:52.176Z,99934.00
2023-01-26T04:55:26.879Z,99940.00
2023-01-26T04:57:00.310Z,99937.00
2023-01-26T04:58:33.160Z,99945.00
2023-01-26T05:00:10.711Z,99950.00
2023-01-26T05:01:44.378Z,99945.00
2023-01-26T05:03:16.657Z,99947.00
2023-01-26T05:04:51.756Z,99942.00
2023-01-26T05:06:26.473Z,99940.00
2023-01-26T05:07:59.817Z,99931.00
2023-01-26T05:09:35.221Z,99945.00
2023-01-26T05:11:25.618Z,99944.00
2023-01-26T05:13:10.859Z,99937.00
2023-01-26T05:15:00.356Z,99936.00
2023-01-26T05:16:50.127Z,99946.00
2023-01-26T05:18:36.407Z,99940.00
2023-01-26T05:20:20.656Z,99934.00
2023-01-26T05:22:12.436Z,99931.00
2023-01-26T05:23:48.836Z,99932.00
2023-01-26T05:25:42.090Z,99933.00
2023-01-26T05:27:23.814Z,99931.00
2023-01-26T05:29:00.802Z,99947.00
2023-01-26T05:30:34.055Z,99937.00
2023-01-26T05:32:08.293Z,99945.00
2023-01-26T05:33:41.422Z,99941.00
2023-01-26T05:35:17.135Z,99952.00
2023-01-26T05:36:50.586Z,99950.00
2023-01-26T05:38:26.256Z,99942.00
2023-01-26T05:39:59.486Z,99934.00
2023-01-26T05:41:32.653Z,99934.00
2023-01-26T05:43:25.880Z,99934.00
2023-01-26T05:45:18.230Z,99936.00
2023-01-26T05:46:51.934Z,99939.00
2023-01-26T05:48:25.425Z,99937.00
2023-01-26T05:49:59.229Z,99938.00
2023-01-26T05:51:36.676Z,99940.00
2023-01-26T05:53:11.285Z,99947.00
2023-01-26T05:54:45.955Z,99943.00
2023-01-26T05:56:19.384Z,99945.00
2023-01-26T05:57:57.577Z,99950.00
2023-01-26T05:59:31.892Z,99942.00
2023-01-26T06:01:06.113Z,99935.00
2023-01-26T06:02:48.723Z,99939.00
2023-01-26T06:04:23.425Z,99940.00
2023-01-26T06:06:00.587Z,99934.00
2023-01-26T06:07:42.319Z,99950.00
2023-01-26T06:09:27.341Z,99951.00
2023-01-26T06:11:12.817Z,99949.00
2023-01-26T06:12:52.747Z,99942.00
2023-01-26T06:14:42.182Z,99951.00
2023-01-26T06:16:15.607Z,99950.00
2023-01-26T06:17:48.998Z,99949.00
2023-01-26T06:19:24.123Z,99953.00
2023-01-26T06:21:02.735Z,99953.00
2023-01-26T06:22:36.435Z,99961.00
2023-01-26T06:24:09.997Z,99968.00
2023-01-26T06:25:43.277Z,99970.00
2023-01-26T06:27:19.555Z,99965.00
2023-01-26T06:28:56.691Z,99965.00
2023-01-26T06:30:31.515Z,99959.00
2023-01-26T06:32:08.626Z,99957.00
2023-01-26T06:33:44.987Z,99958.00
2023-01-26T06:35:19.582Z,99962.00
2023-01-26T06:36:52.971Z,99967.00
2023-01-26T06:38:32.564Z,99965.00
2023-01-26T06:40:07.793Z,99965.00
2023-01-26T06:41:44.326Z,99971.00
2023-01-26T06:43:18.837Z,99968.00
2023-01-26T06:44:51.945Z,99966.00
2023-01-26T06:46:25.266Z,99968.00
2023-01-26T06:48:00.688Z,99973.00
2023-01-26T06:49:34.130Z,99963.00
2023-01-26T06:51:48.146Z,99981.00
2023-01-26T06:53:35.514Z,99972.00
2023-01-26T06:55:33.186Z,99975.00
2023-01-26T06:57:23.327Z,99971.00
2023-01-26T06:59:10.871Z,99979.00
2023-01-26T07:01:01.752Z,99968.00
2023-01-26T07:02:39.932Z,99980.00
2023-01-26T07:04:13.157Z,99973.00
2023-01-26T07:05:46.730Z,99964.00
2023-01-26T07:07:20.040Z,99965.00
2023-01-26T07:08:53.777Z,99968.00
2023-01-26T07:10:26.979Z,99967.00
2023-01-26T07:12:00.411Z,99968.00
2023-01-26T07:13:33.928Z,99974.00
2023-01-26T07:15:10.148Z,99967.00
2023-01-26T07:16:43.429Z,99969.00
2023-01-26T07:18:16.855Z,99981.00
2023-01-26T07:19:50.203Z,99969.00
2023-01-26T07:21:23.937Z,99968.00
2023-01-26T07:22:57.009Z,99966.00
2023-01-26T07:24:30.627Z,99968.00
2023-01-26T07:26:04.592Z,99961.00
2023-01-26T07:27:38.106Z,99975.00
2023-01-26T07:29:11.263Z,99964.00
2023-01-26T07:30:45.776Z,99963.00
2023-01-26T07:32:19.173Z,99970.00
2023-01-26T07:33:52.595Z,99958.00
2023-01-26T07:35:26.040Z,99959.00
2023-01-26T07:36:59.399Z,99958.00
2023-01-26T07:38:34.467Z,99960.00
2023-01-26T07:40:10.173Z,99963.00
2023-01-26T07:41:43.875Z,99947.00
2023-01-26T07:43:38.431Z,99958.00
2023-01-26T07:45:18.561Z,99953.00
2023-01-26T07:46:54.690Z,99958.00
2023-01-26T07:48:29.895Z,99959.00
2023-01-26T07:50:03.179Z,99961.00
2023-01-26T07:51:36.387Z,99959.00
2023-01-26T07:53:09.475Z,99960.00
2023-01-26T07:54:42.877Z,99970.00
2023-01-26T07:56:20.482Z,99962.00
2023-01-26T07:57:53.890Z,99956.00
2023-01-26T07:59:27.427Z,99960.00
2023-01-26T08:01:10.907Z,99963.00
2023-01-26T08:02:46.019Z,99950.00
2023-01-26T08:04:19.867Z,99968.00
2023-01-26T08:05:54.220Z,99962.00
2023-01-26T08:07:27.703Z,99968.00
2023-01-26T08:09:01.023Z,99965.00
2023-01-26T08:10:34.168Z,99966.00
2023-01-26T08:12:08.288Z,99965.00
2023-01-26T08:13:41.543Z,99968.00
2023-01-26T08:15:15.116Z,99970.00
2023-01-26T08:16:48.261Z,99969.00
2023-01-26T08:18:22.919Z,99977.00
2023-01-26T08:19:56.181Z,99971.00
2023-01-26T08:21:29.508Z,99977.00
2023-01-26T08:23:02.687Z,99975.00
2023-01-26T08:24:35.879Z,99983.00
2023-01-26T08:26:12.206Z,99976.00
2023-01-26T08:27:45.621Z,99978.00
2023-01-26T08:29:20.740Z,99989.00
2023-01-26T08:30:53.740Z,99995.00
2023-01-26T08:32:26.924Z,99987.00
2023-01-26T08:34:01.480Z,99985.00
2023-01-26T08:35:35.557Z,99996.00
2023-01-26T08:37:08.895Z,99994.00
2023-01-26T08:38:43.287Z,99989.00
2023-01-26T08:40:17.305Z,99982.00
2023-01-26T08:41:50.421Z,99987.00
2023-01-26T08:43:23.526Z,99987.00
2023-01-26T08:44:56.661Z,99977.00
2023-01-26T08:46:30.080Z,99979.00
2023-01-26T08:48:03.175Z,99982.00
2023-01-26T08:49:38.171Z,99994.00
2023-01-26T08:51:11.492Z,99997.00
2023-01-26T08:52:44.685Z,99997.00
2023-01-26T08:54:18.023Z,100004.00
2023-01-26T08:55:51.742Z,100000.00
2023-01-26T08:57:24.899Z,99992.00
2023-01-26T08:58:58.224Z,99991.00
2023-01-26T09:00:33.356Z,99992.00
2023-01-26T09:02:07.093Z,100004.00
2023-01-26T09:03:40.559Z,99995.00
2023-01-26T09:05:15.397Z,100001.00
2023-01-26T09:06:48.619Z,99996.00
2023-01-26T09:08:21.780Z,99994.00
2023-01-26T09:09:54.931Z,99997.00
2023-01-26T09:11:28.057Z,100005.00
2023-01-26T09:13:04.736Z,99993.00
2023-01-26T09:14:37.829Z,100006.00
2023-01-26T09:16:20.105Z,99999.00
2023-01-26T09:17:53.898Z,100003.00
2023-01-26T09:19:28.988Z,100001.00
2023-01-26T09:21:10.812Z,100007.00
2023-01-26T09:22:44.195Z,100005.00
2023-01-26T09:24:17.529Z,100009.00
2023-01-26T09:25:54.425Z,100003.00
2023-01-26T09:27:28.486Z,100004.00
2023-01-26T09:29:01.646Z,100005.00
2023-01-26T09:30:35.163Z,100005.00
2023-01-26T09:32:10.672Z,100007.00
2023-01-26T09:33:45.251Z,100017.00
2023-01-26T09:35:19.351Z,100011.00
2023-01-26T09:36:54.080Z,100016.00
2023-01-26T09:38:27.344Z,100004.00
2023-01-26T09:40:00.698Z,100016.00
2023-01-26T09:42:11.320Z,100019.00
2023-01-26T09:43:49.896Z,100025.00
2023-01-26T09:45:32.531Z,100016.00
2023-01-26T09:47:18.943Z,100016.00
2023-01-26T09:49:06.820Z,100011.00
2023-01-26T09:50:47.725Z,100010.00
2023-01-26T09:52:28.737Z,100011.00
2023-01-26T09:54:17.128Z,100016.00
2023-01-26T09:55:51.102Z,100016.00
2023-01-26T09:57:33.674Z,100014.00
2023-01-26T09:59:26.209Z,100017.00
2023-01-26T10:01:03.490Z,100009.00
2023-01-26T10:02:56.405Z,100012.00
2023-01-26T10:04:36.999Z,100006.00
2023-01-26T10:06:22.234Z,100011.00
2023-01-26T10:08:17.719Z,100007.00
2023-01-26T10:09:54.771Z,100002.00
2023-01-26T10:11:33.093Z,99996.00
2023-01-26T10:13:07.701Z,100000.00
2023-01-26T10:14:46.429Z,99985.00
2023-01-26T10:16:24.214Z,100009.00
2023-01-26T10:18:02.314Z,99991.00
2023-01-26T10:19:41.852Z,99993.00
2023-01-26T10:21:20.027Z,99990.00
2023-01-26T10:22:59.393Z,99988.00
2023-01-26T10:24:34.871Z,99977.00
2023-01-26T10:26:16.372Z,99986.00
2023-01-26T10:27:49.460Z,99975.00
2023-01-26T10:29:23.843Z,99982.00
2023-01-26T10:30:58.116Z,99976.00
2023-01-26T10:32:35.404Z,99985.00
2023-01-26T10:34:16.320Z,99988.00
2023-01-26T10:35:49.374Z,99983.00
2023-01-26T10:37:28.960Z,99985.00
2023-01-26T10:39:07.187Z,99978.00
2023-01-26T10:40:45.602Z,99977.00
2023-01-26T10:42:20.383Z,99984.00
2023-01-26T10:43:56.442Z,99985.00
2023-01-26T10:45:32.938Z,99982.00
2023-01-26T10:47:16.352Z,99990.00
2023-01-26T10:48:53.813Z,99980.00
2023-01-26T10:50:27.169Z,99976.00
2023-01-26T10:52:09.786Z,99984.00
2023-01-26T10:53:43.020Z,99975.00
2023-01-26T10:55:22.575Z,99971.00
2023-01-26T10:56:59.676Z,99968.00
2023-01-26T10:58:48.062Z,99968.00
2023-01-26T11:00:28.900Z,99971.00
2023-01-26T11:02:04.270Z,99969.00
2023-01-26T11:03:41.014Z,99968.00
2023-01-26T11:05:21.711Z,99957.00
2023-01-26T11:06:56.035Z,99959.00
2023-01-26T11:08:35.417Z,99965.00
2023-01-26T11:10:27.255Z,99953.00
2023-01-26T11:12:06.054Z,99953.00
2023-01-26T11:13:41.159Z,99956.00
2023-01-26T11:15:20.860Z,99946.00
2023-01-26T11:17:09.745Z,99950.00
2023-01-26T11:18:59.247Z,99957.00
2023-01-26T11:20:50.082Z,99952.00
2023-01-26T11:22:33.564Z,99949.00
2023-01-26T11:24:17.489Z,99947.00
2023-01-26T11:26:19.528Z,99960.00
2023-01-26T11:28:26.397Z,99964.00
2023-01-26T11:30:38.066Z,99955.00
2023-01-26T11:32:23.791Z,99951.00
2023-01-26T11:34:19.042Z,99953.00
2023-01-26T11:36:04.704Z,99953.00
2023-01-26T11:37:46.047Z,99954.00
2023-01-26T11:39:29.634Z,99955.00
2023-01-26T11:41:30.268Z,99944.00
2023-01-26T11:43:51.007Z,99950.00
2023-01-26T11:45:36.209Z,99944.00
2023-01-26T11:47:26.757Z,99947.00
2023-01-26T11:49:19.243Z,99943.00
2023-01-26T11:51:05.584Z,99949.00
2023-01-26T11:52:55.772Z,99935.00
2023-01-26T11:54:58.347Z,99945.00
2023-01-26T11:56:47.654Z,99935.00
2023-01-26T11:58:33.897Z,99931.00
2023-01-26T12:00:29.577Z,99931.00
2023-01-26T12:02:23.313Z,99934.00
2023-01-26T12:04:00.357Z,99925.00
2023-01-26T12:05:46.533Z,99927.00
2023-01-26T12:07:27.260Z,99938.00
2023-01-26T12:09:05.529Z,99939.00
2023-01-26T12:10:49.369Z,99937.00
2023-01-26T12:12:33.898Z,99925.00
2023-01-26T12:14:19.592Z,99922.00
2023-01-26T12:16:01.881Z,99920.00
2023-01-26T12:17:59.096Z,99922.00
2023-01-26T12:19:45.842Z,99926.00
2023-01-26T12:21:21.298Z,99924.00
2023-01-26T12:23:06.010Z,99928.00
2023-01-26T12:25:12.216Z,99926.00
2023-01-26T12:26:48.770Z,99918.00
2023-01-26T12:28:28.461Z,99920.00
2023-01-26T12:30:23.583Z,99923.00
2023-01-26T12:32:06.704Z,99917.00
2023-01-26T12:33:40.667Z,99922.00
2023-01-26T12:35:14.753Z,99913.00
2023-01-26T12:37:03.577Z,99904.00
2023-01-26T12:38:51.832Z,99902.00
2023-01-26T12:40:41.870Z,99899.00
2023-01-26T12:42:27.518Z,99897.00
2023-01-26T12:44:20.498Z,99896.00
2023-01-26T12:46:00.450Z,99893.00
2023-01-26T12:47:41.009Z,99883.00
2023-01-26T12:49:23.561Z,99887.00
2023-01-26T12:51:03.943Z,99882.00
2023-01-26T12:52:45.332Z,99891.00
2023-01-26T12:54:27.241Z,99882.00
2023-01-26T12:56:12.278Z,99876.00
2023-01-26T12:57:51.281Z,99880.00
2023-01-26T12:59:39.795Z,99878.00
2023-01-26T13:01:26.066Z,99889.00
2023-01-26T13:03:06.810Z,99878.00
2023-01-26T13:04:41.859Z,99878.00
2023-01-26T13:06:24.536Z,99880.00
2023-01-26T13:07:57.975Z,99880.00
2023-01-26T13:09:31.949Z,99878.00
2023-01-26T13:11:08.125Z,99882.00
2023-01-26T13:12:50.147Z,99885.00
2023-01-26T13:14:35.171Z,99877.00
2023-01-26T13:16:36.426Z,99878.00
2023-01-26T13:18:18.474Z,99867.00
2023-01-26T13:19:59.640Z,99877.00
2023-01-26T13:21:45.901Z,99875.00
2023-01-26T13:23:43.395Z,99880.00
2023-01-26T13:25:26.985Z,99879.00
2023-01-26T13:27:00.882Z,99878.00
2023-01-26T13:28:34.360Z,99872.00
2023-01-26T13:30:43.424Z,99869.00
2023-01-26T13:33:05.314Z,99870.00
2023-01-26T13:34:44.723Z,99873.00
2023-01-26T13:36:22.186Z,99871.00
2023-01-26T13:38:05.816Z,99876.00
2023-01-26T13:39:47.050Z,99873.00
2023-01-26T13:41:22.460Z,99867.00
2023-01-26T13:43:09.336Z,99865.00
2023-01-26T13:44:53.215Z,99868.00
2023-01-26T13:46:35.562Z,99861.00
2023-01-26T13:48:17.738Z,99866.00
2023-01-26T13:49:53.189Z,99863.00
2023-01-26T13:51:30.393Z,99875.00
2023-01-26T13:53:03.599Z,99879.00
2023-01-26T13:54:36.850Z,99886.00
2023-01-26T13:56:28.565Z,99872.00
2023-01-26T13:58:19.230Z,99874.00
2023-01-26T13:59:54.694Z,99882.00
2023-01-26T14:01:30.054Z,99883.00
2023-01-26T14:03:05.511Z,99881.00
2023-01-26T14:04:40.502Z,99889.00
2023-01-26T14:06:19.886Z,99874.00
2023-01-26T14:07:53.501Z,99877.00
2023-01-26T14:09:30.023Z,99871.00
2023-01-26T14:11:07.507Z,99870.00
2023-01-26T14:12:45.294Z,99874.00
2023-01-26T14:14:27.385Z,99880.00
2023-01-26T14:16:05.139Z,99875.00
2023-01-26T14:17:51.260Z,99890.00
2023-01-26T14:19:24.950Z,99884.00
2023-01-26T14:21:04.991Z,99881.00
2023-01-26T14:22:39.468Z,99884.00
2023-01-26T14:24:12.910Z,99881.00
2023-01-26T14:25:50.506Z,99873.00
2023-01-26T14:27:43.476Z,99887.00
2023-01-26T14:29:23.314Z,99882.00
2023-01-26T14:31:08.474Z,99883.00
2023-01-26T14:32:42.615Z,99887.00
2023-01-26T14:34:22.342Z,99890.00
2023-01-26T14:36:01.432Z,99887.00
2023-01-26T14:37:35.663Z,99891.00
2023-01-26T14:39:20.831Z,99883.00
2023-01-26T14:40:56.650Z,99889.00
2023-01-26T14:42:30.081Z,99888.00
2023-01-26T14:44:07.375Z,99888.00
2023-01-26T14:45:47.550Z,99893.00
2023-01-26T14:47:27.193Z,99890.00
2023-01-26T14:49:07.923Z,99889.00
2023-01-26T14:50:44.638Z,99896.00
2023-01-26T14:52:26.490Z,99897.00
2023-01-26T14:54:05.467Z,99901.00
2023-01-26T14:55:40.030Z,99907.00
2023-01-26T14:57:22.187Z,99908.00
2023-01-26T14:58:56.467Z,99898.00
2023-01-26T15:00:34.180Z,99899.00
2023-01-26T15:02:17.943Z,99903.00
2023-01-26T15:03:59.766Z,99906.00
2023-01-26T15:05:37.457Z,99908.00
2023-01-26T15:07:37.075Z,99916.00
2023-01-26T15:09:24.139Z,99907.00
2023-01-26T15:11:15.355Z,99904.00
2023-01-26T15:12:59.386Z,99906.00
2023-01-26T15:14:38.968Z,99909.00
2023-01-26T15:16:18.987Z,99914.00
2023-01-26T15:18:03.508Z,99901.00
2023-01-26T15:19:42.904Z,99906.00
2023-01-26T15:21:21.588Z,99909.00
2023-01-26T15:22:55.244Z,99919.00
2023-01-26T15:24:28.445Z,99910.00
2023-01-26T15:26:13.869Z,99906.00
2023-01-26T15:27:53.362Z,99906.00
2023-01-26T15:29:32.259Z,99913.00
2023-01-26T15:31:07.195Z,99916.00
2023-01-26T15:32:40.999Z,99911.00
2023-01-26T15:34:33.071Z,99904.00
2023-01-26T15:36:08.212Z,99894.00
2023-01-26T15:37:41.667Z,99900.00
2023-01-26T15:39:17.064Z,99897.00
2023-01-26T15:40:50.173Z,99892.00
2023-01-26T15:42:28.896Z,99894.00
2023-01-26T15:44:02.030Z,99901.00
2023-01-26T15:45:36.293Z,99897.00
2023-01-26T15:47:12.055Z,99899.00
2023-01-26T15:48:50.630Z,99909.00
2023-01-26T15:50:28.295Z,99904.00
2023-01-26T15:52:01.596Z,99905.00
2023-01-26T15:53:34.750Z,99909.00
2023-01-26T15:55:22.408Z,99908.00
2023-01-26T15:56:55.491Z,99905.00
2023-01-26T15:58:32.464Z,99898.00
2023-01-26T16:00:07.673Z,99908.00
2023-01-26T16:01:41.026Z,99889.00
2023-01-26T16:03:18.615Z,99908.00
2023-01-26T16:04:51.818Z,99891.00
2023-01-26T16:06:32.638Z,99891.00
2023-01-26T16:08:06.099Z,99894.00
2023-01-26T16:09:39.444Z,99902.00
2023-01-26T16:11:14.549Z,99899.00
2023-01-26T16:12:49.760Z,99899.00
2023-01-26T16:14:24.555Z,99892.00
2023-01-26T16:15:57.763Z,99895.00
2023-01-26T16:17:31.216Z,99897.00
2023-01-26T16:19:04.380Z,99902.00
2023-01-26T16:20:40.008Z,99908.00
2023-01-26T16:22:14.214Z,99891.00
2023-01-26T16:23:47.973Z,99894.00
2023-01-26T16:25:26.925Z,99897.00
2023-01-26T16:27:00.194Z,99894.00
2023-01-26T16:28:33.396Z,99892.00
2023-01-26T16:30:10.746Z,99902.00
2023-01-26T16:31:44.052Z,99901.00
2023-01-26T16:33:21.069Z,99909.00
2023-01-26T16:34:54.776Z,99901.00
2023-01-26T16:36:28.227Z,99904.00
2023-01-26T16:38:01.582Z,99902.00
2023-01-26T16:39:36.409Z,99894.00
2023-01-26T16:41:16.975Z,99897.00
2023-01-26T16:42:54.352Z,99890.00
2023-01-26T16:44:27.550Z,99888.00
2023-01-26T16:46:02.079Z,99885.00
2023-01-26T16:47:36.081Z,99886.00
2023-01-26T16:49:14.467Z,99888.00
2023-01-26T16:50:52.239Z,99900.00
2023-01-26T16:52:25.593Z,99898.00
2023-01-26T16:53:59.660Z,99903.00
2023-01-26T16:55:35.958Z,99895.00
2023-01-26T16:57:10.088Z,99894.00
2023-01-26T16:58:43.392Z,99899.00
2023-01-26T17:00:19.351Z,99893.00
2023-01-26T17:01:54.292Z,99897.00
2023-01-26T17:03:27.508Z,99899.00
2023-01-26T17:05:00.874Z,99899.00
2023-01-26T17:06:34.110Z,99899.00
2023-01-26T17:08:08.020Z,99898.00
2023-01-26T17:09:41.364Z,99897.00
2023-01-26T17:11:19.055Z,99890.00
2023-01-26T17:12:52.832Z,99903.00
2023-01-26T17:14:26.055Z,99903.00
2023-01-26T17:15:59.760Z,99902.00
2023-01-26T17:17:34.685Z,99908.00
2023-01-26T17:19:09.414Z,99909.00
2023-01-26T17:20:43.485Z,99905.00
2023-01-26T17:22:16.685Z,99905.00
2023-01-26T17:23:51.318Z,99903.00
2023-01-26T17:25:24.476Z,99910.00
2023-01-26T17:26:57.679Z,99912.00
2023-01-26T17:28:31.352Z,99914.00
2023-01-26T17:30:05.503Z,99911.00
2023-01-26T17:31:38.744Z,99910.00
2023-01-26T17:33:13.423Z,99918.00
2023-01-26T17:34:47.024Z,99909.00
2023-01-26T17:36:21.637Z,99923.00
2023-01-26T17:37:55.443Z,99927.00
2023-01-26T17:39:29.262Z,99926.00
2023-01-26T17:41:03.533Z,99914.00
2023-01-26T17:42:36.994Z,99928.00
2023-01-26T17:44:10.311Z,99927.00
2023-01-26T17:45:43.864Z,99926.00
2023-01-26T17:47:17.089Z,99923.00
2023-01-26T17:48:52.324Z,99928.00
2023-01-26T17:50:25.484Z,99931.00
2023-01-26T17:51:58.931Z,99923.00
2023-01-26T17:53:32.240Z,99932.00
2023-01-26T17:55:07.233Z,99927.00
2023-01-26T17:56:40.502Z,99923.00
2023-01-26T17:58:13.826Z,99935.00
2023-01-26T17:59:47.023Z,99926.00
2023-01-26T18:01:21.825Z,99924.00
2023-01-26T18:03:00.399Z,99925.00
2023-01-26T18:04:35.283Z,99928.00
2023-01-26T18:06:09.598Z,99930.00
2023-01-26T18:07:42.777Z,99945.00
2023-01-26T18:09:16.103Z,99935.00
2023-01-26T18:10:49.993Z,99934.00
2023-01-26T18:12:23.277Z,99929.00
2023-01-26T18:14:03.688Z,99935.00
2023-01-26T18:15:37.610Z,99939.00
2023-01-26T18:17:10.977Z,99931.00
2023-01-26T18:18:44.798Z,99934.00
2023-01-26T18:20:20.331Z,99941.00
2023-01-26T18:21:53.462Z,99930.00
2023-01-26T18:23:29.669Z,99924.00
2023-01-26T18:25:02.748Z,99940.00
2023-01-26T18:26:39.142Z,99928.00
2023-01-26T18:28:12.825Z,99928.00
2023-01-26T18:29:53.959Z,99918.00
2023-01-26T18:31:30.473Z,99921.00
2023-01-26T18:33:03.997Z,99926.00
2023-01-26T18:34:38.848Z,99923.00
2023-01-26T18:36:17.120Z,99926.00
2023-01-26T18:37:50.291Z,99922.00
2023-01-26T18:39:23.487Z,99931.00
2023-01-26T18:40:56.607Z,99921.00
2023-01-26T18:42:30.142Z,99927.00
2023-01-26T18:44:04.141Z,99927.00
2023-01-26T18:45:41.759Z,99931.00
2023-01-26T18:47:15.176Z,99928.00
2023-01-26T18:48:48.603Z,99925.00
2023-01-26T18:50:21.881Z,99926.00
2023-01-26T18:51:56.882Z,99931.00
2023-01-26T18:53:30.167Z,99928.00
2023-01-26T18:55:05.851Z,99930.00
2023-01-26T18:56:39.188Z,99918.00
2023-01-26T18:58:12.612Z,99929.00
2023-01-26T18:59:46.053Z,99912.00
2023-01-26T19:01:21.106Z,99922.00
2023-01-26T19:02:54.807Z,99915.00
2023-01-26T19:04:28.748Z,99905.00
2023-01-26T19:06:06.005Z,99911.00
2023-01-26T19:07:45.719Z,99913.00
2023-01-26T19:09:19.389Z,99907.00